sensor_id;sensor_type;location;lat;lon;timestamp;temperature;humidity
72591;SHT31;60625;51.212;5.952;2023-11-19T00:02:46;12.56;92.90
72591;SHT31;60625;51.212;5.952;2023-11-19T00:07:47;12.58;92.88
72591;SHT31;60625;51.212;5.952;2023-11-19T00:12:48;12.59;92.79
72591;SHT31;60625;51.212;5.952;2023-11-19T00:17:50;12.59;92.80
72591;SHT31;60625;51.212;5.952;2023-11-19T00:22:51;12.61;92.89
72591;SHT31;60625;51.212;5.952;2023-11-19T00:27:51;12.62;92.91
72591;SHT31;60625;51.212;5.952;2023-11-19T00:32:54;12.62;92.83
72591;SHT31;60625;51.212;5.952;2023-11-19T00:37:54;12.64;93.06
72591;SHT31;60625;51.212;5.952;2023-11-19T00:42:55;12.70;93.21
72591;SHT31;60625;51.212;5.952;2023-11-19T00:47:56;12.76;93.24
72591;SHT31;60625;51.212;5.952;2023-11-19T00:52:56;12.87;93.41
72591;SHT31;60625;51.212;5.952;2023-11-19T00:57:56;12.96;93.20
72591;SHT31;60625;51.212;5.952;2023-11-19T01:02:57;13.04;93.00
72591;SHT31;60625;51.212;5.952;2023-11-19T01:07:58;13.07;92.77
72591;SHT31;60625;51.212;5.952;2023-11-19T01:12:58;13.10;92.57
72591;SHT31;60625;51.212;5.952;2023-11-19T01:18:00;13.14;92.45
72591;SHT31;60625;51.212;5.952;2023-11-19T01:23:06;13.14;92.29
72591;SHT31;60625;51.212;5.952;2023-11-19T01:28:06;13.14;92.20
72591;SHT31;60625;51.212;5.952;2023-11-19T01:33:07;13.15;92.11
72591;SHT31;60625;51.212;5.952;2023-11-19T01:38:08;13.16;92.02
72591;SHT31;60625;51.212;5.952;2023-11-19T01:43:09;13.18;91.97
72591;SHT31;60625;51.212;5.952;2023-11-19T01:48:11;13.23;91.86
72591;SHT31;60625;51.212;5.952;2023-11-19T01:53:14;13.25;91.70
72591;SHT31;60625;51.212;5.952;2023-11-19T01:58:14;13.26;91.71
72591;SHT31;60625;51.212;5.952;2023-11-19T02:03:16;13.27;91.65
72591;SHT31;60625;51.212;5.952;2023-11-19T02:08:17;13.31;91.58
72591;SHT31;60625;51.212;5.952;2023-11-19T02:13:18;13.32;91.35
72591;SHT31;60625;51.212;5.952;2023-11-19T02:18:23;13.30;91.20
72591;SHT31;60625;51.212;5.952;2023-11-19T02:23:28;13.31;91.12
72591;SHT31;60625;51.212;5.952;2023-11-19T02:28:30;13.35;90.89
72591;SHT31;60625;51.212;5.952;2023-11-19T02:33:33;13.36;90.68
72591;SHT31;60625;51.212;5.952;2023-11-19T02:38:34;13.38;90.50
72591;SHT31;60625;51.212;5.952;2023-11-19T02:43:39;13.38;90.55
72591;SHT31;60625;51.212;5.952;2023-11-19T02:48:39;13.39;90.58
72591;SHT31;60625;51.212;5.952;2023-11-19T02:53:40;13.39;90.46
72591;SHT31;60625;51.212;5.952;2023-11-19T02:58:44;13.39;90.32
72591;SHT31;60625;51.212;5.952;2023-11-19T03:03:45;13.39;90.07
72591;SHT31;60625;51.212;5.952;2023-11-19T03:08:54;13.35;89.82
72591;SHT31;60625;51.212;5.952;2023-11-19T03:13:55;13.29;89.57
72591;SHT31;60625;51.212;5.952;2023-11-19T03:18:56;13.23;89.27
72591;SHT31;60625;51.212;5.952;2023-11-19T03:23:58;13.16;89.00
72591;SHT31;60625;51.212;5.952;2023-11-19T03:29:01;13.10;88.77
72591;SHT31;60625;51.212;5.952;2023-11-19T03:34:02;13.05;88.65
72591;SHT31;60625;51.212;5.952;2023-11-19T03:39:03;13.01;88.57
72591;SHT31;60625;51.212;5.952;2023-11-19T03:44:04;12.96;88.49
72591;SHT31;60625;51.212;5.952;2023-11-19T03:49:05;12.91;88.47
72591;SHT31;60625;51.212;5.952;2023-11-19T03:54:07;12.85;88.45
72591;SHT31;60625;51.212;5.952;2023-11-19T03:59:08;12.80;88.53
72591;SHT31;60625;51.212;5.952;2023-11-19T04:04:10;12.77;88.60
72591;SHT31;60625;51.212;5.952;2023-11-19T04:09:10;12.76;88.54
72591;SHT31;60625;51.212;5.952;2023-11-19T04:14:11;12.75;88.49
72591;SHT31;60625;51.212;5.952;2023-11-19T04:19:11;12.73;88.57
72591;SHT31;60625;51.212;5.952;2023-11-19T04:24:12;12.74;88.69
72591;SHT31;60625;51.212;5.952;2023-11-19T04:29:15;12.74;88.79
72591;SHT31;60625;51.212;5.952;2023-11-19T04:34:20;12.74;88.70
72591;SHT31;60625;51.212;5.952;2023-11-19T04:39:20;12.74;88.63
72591;SHT31;60625;51.212;5.952;2023-11-19T04:44:21;12.69;88.43
72591;SHT31;60625;51.212;5.952;2023-11-19T04:49:22;12.69;88.01
72591;SHT31;60625;51.212;5.952;2023-11-19T04:54:22;12.75;87.33
72591;SHT31;60625;51.212;5.952;2023-11-19T04:59:23;12.80;87.09
72591;SHT31;60625;51.212;5.952;2023-11-19T05:04:24;12.81;86.96
72591;SHT31;60625;51.212;5.952;2023-11-19T05:09:24;12.76;86.87
72591;SHT31;60625;51.212;5.952;2023-11-19T05:14:25;12.73;86.63
72591;SHT31;60625;51.212;5.952;2023-11-19T05:19:26;12.77;86.39
72591;SHT31;60625;51.212;5.952;2023-11-19T05:24:26;12.76;86.19
72591;SHT31;60625;51.212;5.952;2023-11-19T05:29:27;12.77;85.64
72591;SHT31;60625;51.212;5.952;2023-11-19T05:34:28;12.75;85.46
72591;SHT31;60625;51.212;5.952;2023-11-19T05:39:29;12.70;85.24
72591;SHT31;60625;51.212;5.952;2023-11-19T05:44:29;12.70;84.93
72591;SHT31;60625;51.212;5.952;2023-11-19T05:49:30;12.68;84.86
72591;SHT31;60625;51.212;5.952;2023-11-19T05:54:30;12.68;84.47
72591;SHT31;60625;51.212;5.952;2023-11-19T05:59:33;12.69;84.25
72591;SHT31;60625;51.212;5.952;2023-11-19T06:04:34;12.65;83.97
72591;SHT31;60625;51.212;5.952;2023-11-19T06:09:35;12.58;83.90
72591;SHT31;60625;51.212;5.952;2023-11-19T06:14:35;12.52;84.07
72591;SHT31;60625;51.212;5.952;2023-11-19T06:19:36;12.45;84.24
72591;SHT31;60625;51.212;5.952;2023-11-19T06:24:37;12.36;84.42
72591;SHT31;60625;51.212;5.952;2023-11-19T06:29:38;12.27;84.29
72591;SHT31;60625;51.212;5.952;2023-11-19T06:34:41;12.22;83.96
72591;SHT31;60625;51.212;5.952;2023-11-19T06:39:42;12.16;83.88
72591;SHT31;60625;51.212;5.952;2023-11-19T06:44:42;12.08;83.86
72591;SHT31;60625;51.212;5.952;2023-11-19T06:49:45;12.01;83.94
72591;SHT31;60625;51.212;5.952;2023-11-19T06:54:47;11.97;84.16
72591;SHT31;60625;51.212;5.952;2023-11-19T06:59:47;11.89;84.36
72591;SHT31;60625;51.212;5.952;2023-11-19T07:04:48;11.87;84.33
72591;SHT31;60625;51.212;5.952;2023-11-19T07:09:49;11.82;84.44
72591;SHT31;60625;51.212;5.952;2023-11-19T07:14:50;11.78;84.56
72591;SHT31;60625;51.212;5.952;2023-11-19T07:19:51;11.78;84.48
72591;SHT31;60625;51.212;5.952;2023-11-19T07:24:51;11.82;84.32
72591;SHT31;60625;51.212;5.952;2023-11-19T07:29:53;11.81;84.36
72591;SHT31;60625;51.212;5.952;2023-11-19T07:34:54;11.83;84.19
72591;SHT31;60625;51.212;5.952;2023-11-19T07:39:56;11.86;84.08
72591;SHT31;60625;51.212;5.952;2023-11-19T07:44:57;11.90;84.00
72591;SHT31;60625;51.212;5.952;2023-11-19T07:49:57;11.92;83.96
72591;SHT31;60625;51.212;5.952;2023-11-19T07:54:58;11.94;83.99
72591;SHT31;60625;51.212;5.952;2023-11-19T07:59:58;11.95;84.08
72591;SHT31;60625;51.212;5.952;2023-11-19T08:05:02;12.00;83.98
72591;SHT31;60625;51.212;5.952;2023-11-19T08:10:02;12.04;83.96
72591;SHT31;60625;51.212;5.952;2023-11-19T08:15:05;12.05;83.97
72591;SHT31;60625;51.212;5.952;2023-11-19T08:20:07;12.10;83.90
72591;SHT31;60625;51.212;5.952;2023-11-19T08:25:13;12.14;83.79
72591;SHT31;60625;51.212;5.952;2023-11-19T08:30:13;12.26;83.46
72591;SHT31;60625;51.212;5.952;2023-11-19T08:35:14;12.39;83.09
72591;SHT31;60625;51.212;5.952;2023-11-19T08:40:16;12.53;82.65
72591;SHT31;60625;51.212;5.952;2023-11-19T08:45:17;12.67;82.43
72591;SHT31;60625;51.212;5.952;2023-11-19T08:50:18;12.73;82.04
72591;SHT31;60625;51.212;5.952;2023-11-19T08:55:18;12.74;82.00
72591;SHT31;60625;51.212;5.952;2023-11-19T09:00:19;12.81;81.60
72591;SHT31;60625;51.212;5.952;2023-11-19T09:05:21;12.86;81.22
72591;SHT31;60625;51.212;5.952;2023-11-19T09:10:22;12.96;80.94
72591;SHT31;60625;51.212;5.952;2023-11-19T09:15:22;13.08;80.38
72591;SHT31;60625;51.212;5.952;2023-11-19T09:20:22;13.18;80.42
72591;SHT31;60625;51.212;5.952;2023-11-19T09:25:23;13.23;80.43
72591;SHT31;60625;51.212;5.952;2023-11-19T09:30:24;13.29;80.11
72591;SHT31;60625;51.212;5.952;2023-11-19T09:35:24;13.34;79.86
72591;SHT31;60625;51.212;5.952;2023-11-19T09:40:25;13.35;79.20
72591;SHT31;60625;51.212;5.952;2023-11-19T09:45:26;13.39;78.94
72591;SHT31;60625;51.212;5.952;2023-11-19T09:50:28;13.45;79.28
72591;SHT31;60625;51.212;5.952;2023-11-19T09:55:29;13.49;78.69
72591;SHT31;60625;51.212;5.952;2023-11-19T10:00:30;13.56;78.50
72591;SHT31;60625;51.212;5.952;2023-11-19T10:05:31;13.66;77.46
72591;SHT31;60625;51.212;5.952;2023-11-19T10:10:31;13.78;77.44
72591;SHT31;60625;51.212;5.952;2023-11-19T10:15:34;13.85;77.13
72591;SHT31;60625;51.212;5.952;2023-11-19T10:20:37;13.90;76.78
72591;SHT31;60625;51.212;5.952;2023-11-19T10:25:41;13.94;76.76
72591;SHT31;60625;51.212;5.952;2023-11-19T10:30:41;13.89;76.64
72591;SHT31;60625;51.212;5.952;2023-11-19T10:35:52;13.81;76.04
72591;SHT31;60625;51.212;5.952;2023-11-19T10:40:56;13.80;76.12
72591;SHT31;60625;51.212;5.952;2023-11-19T10:46:09;13.87;76.10
72591;SHT31;60625;51.212;5.952;2023-11-19T10:51:14;14.01;75.89
72591;SHT31;60625;51.212;5.952;2023-11-19T10:56:24;14.13;75.09
72591;SHT31;60625;51.212;5.952;2023-11-19T11:01:32;14.20;74.69
72591;SHT31;60625;51.212;5.952;2023-11-19T11:06:41;14.23;74.31
72591;SHT31;60625;51.212;5.952;2023-11-19T11:11:44;14.28;74.26
72591;SHT31;60625;51.212;5.952;2023-11-19T11:16:48;14.44;74.22
72591;SHT31;60625;51.212;5.952;2023-11-19T11:21:50;14.50;74.19
72591;SHT31;60625;51.212;5.952;2023-11-19T11:26:57;14.64;73.92
72591;SHT31;60625;51.212;5.952;2023-11-19T11:32:23;14.58;73.26
72591;SHT31;60625;51.212;5.952;2023-11-19T11:37:45;14.54;73.09
72591;SHT31;60625;51.212;5.952;2023-11-19T11:42:49;14.47;73.43
72591;SHT31;60625;51.212;5.952;2023-11-19T11:58:00;14.21;74.93
72591;SHT31;60625;51.212;5.952;2023-11-19T12:03:01;14.06;76.00
72591;SHT31;60625;51.212;5.952;2023-11-19T12:08:05;13.83;77.65
72591;SHT31;60625;51.212;5.952;2023-11-19T12:13:07;13.68;78.54
72591;SHT31;60625;51.212;5.952;2023-11-19T12:18:08;13.74;79.17
72591;SHT31;60625;51.212;5.952;2023-11-19T12:23:09;13.93;78.85
72591;SHT31;60625;51.212;5.952;2023-11-19T12:28:13;14.03;78.21
72591;SHT31;60625;51.212;5.952;2023-11-19T12:33:17;14.17;77.62
72591;SHT31;60625;51.212;5.952;2023-11-19T12:38:21;14.30;77.00
72591;SHT31;60625;51.212;5.952;2023-11-19T12:43:25;14.36;75.99
72591;SHT31;60625;51.212;5.952;2023-11-19T12:48:25;14.42;76.07
72591;SHT31;60625;51.212;5.952;2023-11-19T12:53:27;14.50;75.57
72591;SHT31;60625;51.212;5.952;2023-11-19T12:58:30;14.59;75.81
72591;SHT31;60625;51.212;5.952;2023-11-19T13:03:39;14.63;75.76
72591;SHT31;60625;51.212;5.952;2023-11-19T13:08:40;14.57;75.61
72591;SHT31;60625;51.212;5.952;2023-11-19T13:13:58;14.38;75.90
72591;SHT31;60625;51.212;5.952;2023-11-19T13:19:12;14.31;76.22
72591;SHT31;60625;51.212;5.952;2023-11-19T13:24:14;14.25;76.06
72591;SHT31;60625;51.212;5.952;2023-11-19T13:29:15;14.15;75.95
72591;SHT31;60625;51.212;5.952;2023-11-19T13:34:16;14.06;76.01
72591;SHT31;60625;51.212;5.952;2023-11-19T13:39:16;13.96;76.51
72591;SHT31;60625;51.212;5.952;2023-11-19T13:44:22;13.81;77.21
72591;SHT31;60625;51.212;5.952;2023-11-19T13:49:23;13.66;78.10
72591;SHT31;60625;51.212;5.952;2023-11-19T13:54:24;13.54;79.03
72591;SHT31;60625;51.212;5.952;2023-11-19T13:59:24;13.43;80.21
72591;SHT31;60625;51.212;5.952;2023-11-19T14:04:25;13.25;81.15
72591;SHT31;60625;51.212;5.952;2023-11-19T14:09:25;13.14;81.95
72591;SHT31;60625;51.212;5.952;2023-11-19T14:14:26;13.09;82.43
72591;SHT31;60625;51.212;5.952;2023-11-19T14:19:27;13.00;82.71
72591;SHT31;60625;51.212;5.952;2023-11-19T14:24:30;12.94;82.65
72591;SHT31;60625;51.212;5.952;2023-11-19T14:29:31;12.91;82.54
72591;SHT31;60625;51.212;5.952;2023-11-19T14:34:32;12.85;82.80
72591;SHT31;60625;51.212;5.952;2023-11-19T14:39:33;12.76;83.18
72591;SHT31;60625;51.212;5.952;2023-11-19T14:44:34;12.70;83.63
72591;SHT31;60625;51.212;5.952;2023-11-19T14:49:34;12.66;83.78
72591;SHT31;60625;51.212;5.952;2023-11-19T14:54:37;12.64;83.64
72591;SHT31;60625;51.212;5.952;2023-11-19T14:59:41;12.61;83.65
72591;SHT31;60625;51.212;5.952;2023-11-19T15:04:41;12.60;83.56
72591;SHT31;60625;51.212;5.952;2023-11-19T15:09:44;12.58;83.35
72591;SHT31;60625;51.212;5.952;2023-11-19T15:14:45;12.56;83.11
72591;SHT31;60625;51.212;5.952;2023-11-19T15:19:46;12.54;82.91
72591;SHT31;60625;51.212;5.952;2023-11-19T15:24:47;12.54;82.75
72591;SHT31;60625;51.212;5.952;2023-11-19T15:29:47;12.53;82.50
72591;SHT31;60625;51.212;5.952;2023-11-19T15:34:48;12.52;82.67
72591;SHT31;60625;51.212;5.952;2023-11-19T15:39:49;12.48;82.86
72591;SHT31;60625;51.212;5.952;2023-11-19T15:44:51;12.45;82.86
72591;SHT31;60625;51.212;5.952;2023-11-19T15:49:51;12.43;82.67
72591;SHT31;60625;51.212;5.952;2023-11-19T15:54:52;12.43;82.42
72591;SHT31;60625;51.212;5.952;2023-11-19T15:59:53;12.42;82.28
72591;SHT31;60625;51.212;5.952;2023-11-19T16:04:53;12.42;82.17
72591;SHT31;60625;51.212;5.952;2023-11-19T16:09:54;12.40;82.44
72591;SHT31;60625;51.212;5.952;2023-11-19T16:14:56;12.38;82.96
72591;SHT31;60625;51.212;5.952;2023-11-19T16:19:56;12.32;83.49
72591;SHT31;60625;51.212;5.952;2023-11-19T16:24:57;12.28;83.61
72591;SHT31;60625;51.212;5.952;2023-11-19T16:29:57;12.27;83.32
72591;SHT31;60625;51.212;5.952;2023-11-19T16:34:58;12.27;83.40
72591;SHT31;60625;51.212;5.952;2023-11-19T16:40:00;12.23;83.61
72591;SHT31;60625;51.212;5.952;2023-11-19T16:45:01;12.20;83.93
72591;SHT31;60625;51.212;5.952;2023-11-19T16:50:01;12.17;83.96
72591;SHT31;60625;51.212;5.952;2023-11-19T16:55:03;12.17;83.71
72591;SHT31;60625;51.212;5.952;2023-11-19T17:00:11;12.19;83.24
72591;SHT31;60625;51.212;5.952;2023-11-19T17:05:13;12.21;82.81
72591;SHT31;60625;51.212;5.952;2023-11-19T17:10:16;12.24;82.49
72591;SHT31;60625;51.212;5.952;2023-11-19T17:15:18;12.26;82.24
72591;SHT31;60625;51.212;5.952;2023-11-19T17:20:19;12.28;81.74
72591;SHT31;60625;51.212;5.952;2023-11-19T17:25:20;12.29;81.96
72591;SHT31;60625;51.212;5.952;2023-11-19T17:30:20;12.27;82.24
72591;SHT31;60625;51.212;5.952;2023-11-19T17:35:22;12.23;82.49
72591;SHT31;60625;51.212;5.952;2023-11-19T17:40:23;12.19;82.80
72591;SHT31;60625;51.212;5.952;2023-11-19T17:45:25;12.13;83.26
72591;SHT31;60625;51.212;5.952;2023-11-19T17:50:26;12.07;83.79
72591;SHT31;60625;51.212;5.952;2023-11-19T17:55:27;11.99;84.47
72591;SHT31;60625;51.212;5.952;2023-11-19T18:00:29;11.90;85.04
72591;SHT31;60625;51.212;5.952;2023-11-19T18:05:29;11.83;85.46
72591;SHT31;60625;51.212;5.952;2023-11-19T18:10:30;11.78;85.66
72591;SHT31;60625;51.212;5.952;2023-11-19T18:15:31;11.76;85.74
72591;SHT31;60625;51.212;5.952;2023-11-19T18:20:31;11.77;85.96
72591;SHT31;60625;51.212;5.952;2023-11-19T18:25:32;11.73;86.91
72591;SHT31;60625;51.212;5.952;2023-11-19T18:30:32;11.68;87.40
72591;SHT31;60625;51.212;5.952;2023-11-19T18:35:32;11.65;87.35
72591;SHT31;60625;51.212;5.952;2023-11-19T18:40:33;11.67;87.01
72591;SHT31;60625;51.212;5.952;2023-11-19T18:45:34;11.73;86.49
72591;SHT31;60625;51.212;5.952;2023-11-19T18:50:34;11.76;86.42
72591;SHT31;60625;51.212;5.952;2023-11-19T18:55:35;11.78;86.36
72591;SHT31;60625;51.212;5.952;2023-11-19T19:00:36;11.79;86.62
72591;SHT31;60625;51.212;5.952;2023-11-19T19:05:36;11.75;87.15
72591;SHT31;60625;51.212;5.952;2023-11-19T19:10:37;11.70;87.53
72591;SHT31;60625;51.212;5.952;2023-11-19T19:15:39;11.65;87.82
72591;SHT31;60625;51.212;5.952;2023-11-19T19:20:40;11.62;87.98
72591;SHT31;60625;51.212;5.952;2023-11-19T19:25:40;11.59;88.08
72591;SHT31;60625;51.212;5.952;2023-11-19T19:30:41;11.60;88.01
72591;SHT31;60625;51.212;5.952;2023-11-19T19:35:42;11.60;87.93
72591;SHT31;60625;51.212;5.952;2023-11-19T19:40:43;11.61;87.85
72591;SHT31;60625;51.212;5.952;2023-11-19T19:45:43;11.61;87.86
72591;SHT31;60625;51.212;5.952;2023-11-19T19:50:44;11.62;87.86
72591;SHT31;60625;51.212;5.952;2023-11-19T19:55:45;11.63;87.89
72591;SHT31;60625;51.212;5.952;2023-11-19T20:00:45;11.63;88.03
72591;SHT31;60625;51.212;5.952;2023-11-19T20:05:46;11.61;88.28
72591;SHT31;60625;51.212;5.952;2023-11-19T20:10:47;11.59;88.48
72591;SHT31;60625;51.212;5.952;2023-11-19T20:15:48;11.59;88.53
72591;SHT31;60625;51.212;5.952;2023-11-19T20:20:52;11.61;88.43
72591;SHT31;60625;51.212;5.952;2023-11-19T20:25:53;11.62;88.39
72591;SHT31;60625;51.212;5.952;2023-11-19T20:30:55;11.64;88.29
72591;SHT31;60625;51.212;5.952;2023-11-19T20:35:55;11.65;88.27
72591;SHT31;60625;51.212;5.952;2023-11-19T20:40:58;11.66;88.28
72591;SHT31;60625;51.212;5.952;2023-11-19T20:45:59;11.64;88.37
72591;SHT31;60625;51.212;5.952;2023-11-19T20:50:59;11.62;88.53
72591;SHT31;60625;51.212;5.952;2023-11-19T20:56:00;11.61;88.68
72591;SHT31;60625;51.212;5.952;2023-11-19T21:01:03;11.58;88.99
72591;SHT31;60625;51.212;5.952;2023-11-19T21:06:04;11.55;89.31
72591;SHT31;60625;51.212;5.952;2023-11-19T21:11:08;11.53;89.40
72591;SHT31;60625;51.212;5.952;2023-11-19T21:16:10;11.51;89.48
72591;SHT31;60625;51.212;5.952;2023-11-19T21:21:10;11.51;89.41
72591;SHT31;60625;51.212;5.952;2023-11-19T21:26:11;11.52;89.36
72591;SHT31;60625;51.212;5.952;2023-11-19T21:31:12;11.53;89.33
72591;SHT31;60625;51.212;5.952;2023-11-19T21:36:13;11.53;89.28
72591;SHT31;60625;51.212;5.952;2023-11-19T21:41:14;11.54;89.25
72591;SHT31;60625;51.212;5.952;2023-11-19T21:46:15;11.55;89.08
72591;SHT31;60625;51.212;5.952;2023-11-19T21:51:15;11.57;88.99
72591;SHT31;60625;51.212;5.952;2023-11-19T21:56:16;11.60;88.78
72591;SHT31;60625;51.212;5.952;2023-11-19T22:01:17;11.64;88.64
72591;SHT31;60625;51.212;5.952;2023-11-19T22:06:17;11.67;88.63
72591;SHT31;60625;51.212;5.952;2023-11-19T22:11:19;11.68;88.56
72591;SHT31;60625;51.212;5.952;2023-11-19T22:16:19;11.68;88.57
72591;SHT31;60625;51.212;5.952;2023-11-19T22:21:20;11.67;88.62
72591;SHT31;60625;51.212;5.952;2023-11-19T22:26:21;11.67;88.51
72591;SHT31;60625;51.212;5.952;2023-11-19T22:31:21;11.67;88.46
72591;SHT31;60625;51.212;5.952;2023-11-19T22:36:22;11.68;88.32
72591;SHT31;60625;51.212;5.952;2023-11-19T22:41:23;11.69;88.18
72591;SHT31;60625;51.212;5.952;2023-11-19T22:46:24;11.72;87.94
72591;SHT31;60625;51.212;5.952;2023-11-19T22:51:24;11.75;87.65
72591;SHT31;60625;51.212;5.952;2023-11-19T22:56:24;11.79;87.36
72591;SHT31;60625;51.212;5.952;2023-11-19T23:01:25;11.82;87.28
72591;SHT31;60625;51.212;5.952;2023-11-19T23:06:26;11.82;87.19
72591;SHT31;60625;51.212;5.952;2023-11-19T23:11:26;11.83;87.11
72591;SHT31;60625;51.212;5.952;2023-11-19T23:16:27;11.84;87.00
72591;SHT31;60625;51.212;5.952;2023-11-19T23:21:27;11.84;86.91
72591;SHT31;60625;51.212;5.952;2023-11-19T23:26:28;11.86;86.79
72591;SHT31;60625;51.212;5.952;2023-11-19T23:31:29;11.89;86.44
72591;SHT31;60625;51.212;5.952;2023-11-19T23:36:30;11.91;86.36
72591;SHT31;60625;51.212;5.952;2023-11-19T23:41:30;11.92;86.25
72591;SHT31;60625;51.212;5.952;2023-11-19T23:46:31;11.91;86.20
72591;SHT31;60625;51.212;5.952;2023-11-19T23:51:32;11.91;86.12
72591;SHT31;60625;51.212;5.952;2023-11-19T23:56:32;11.91;86.04
